SAA58 FNLU-FACT
Flight info
| Callsign | SAA58 |
|---|---|
| Flight time | 3h 42m |
| Altitude | 37000 |
| Route | VNA UN187 VEDRY/N0441F380 UN185 OKLOK UQ23 CSV UZ26 ERDAS ERDAS1C |
| Aircraft | A20N/M-SDE2E3FGHIRWXY/LB1 |
Departure
| Time | 2026-04-20 14:03 |
|---|---|
| Airport | Quatro de Fevereiro International Airport (FNLU) |
Arrival
| Time | 2026-04-20 17:45 |
|---|---|
| Airport | Cape Town International Airport (FACT) |
| Time | Latitude | Longitude | Altitude | Speed | Heading |
|---|---|---|---|---|---|
| 2026-04-20 13:34 | -8.85084 | 13.23322 | 248 ft | 0 kts | 156° |
| 2026-04-20 13:53 | -8.85077 | 13.23319 | 248 ft | 2 kts | 156° |
| 2026-04-20 13:54 | -8.85063 | 13.23313 | 248 ft | 2 kts | 156° |
| 2026-04-20 13:54 | -8.85050 | 13.23307 | 248 ft | 2 kts | 156° |
| 2026-04-20 13:54 | -8.85040 | 13.23303 | 248 ft | 0 kts | 156° |
| 2026-04-20 13:54 | -8.85028 | 13.23296 | 249 ft | 2 kts | 130° |
| 2026-04-20 13:55 | -8.85021 | 13.23283 | 249 ft | 2 kts | 105° |
| 2026-04-20 13:55 | -8.85020 | 13.23268 | 249 ft | 2 kts | 79° |
| 2026-04-20 13:55 | -8.85023 | 13.23259 | 249 ft | 1 kts | 60° |
| 2026-04-20 13:55 | -8.85025 | 13.23255 | 249 ft | 0 kts | 64° |
| 2026-04-20 13:58 | -8.85023 | 13.23258 | 249 ft | 1 kts | 66° |
| 2026-04-20 13:58 | -8.85016 | 13.23275 | 249 ft | 5 kts | 66° |
| 2026-04-20 13:58 | -8.84992 | 13.23335 | 248 ft | 11 kts | 68° |
| 2026-04-20 13:59 | -8.84955 | 13.23419 | 247 ft | 13 kts | 65° |
| 2026-04-20 13:59 | -8.84961 | 13.23498 | 245 ft | 11 kts | 146° |
| 2026-04-20 13:59 | -8.85030 | 13.23529 | 244 ft | 10 kts | 158° |
| 2026-04-20 13:59 | -8.85092 | 13.23554 | 243 ft | 8 kts | 157° |
| 2026-04-20 14:00 | -8.85143 | 13.23587 | 243 ft | 9 kts | 141° |
| 2026-04-20 14:00 | -8.85202 | 13.23640 | 242 ft | 14 kts | 137° |
| 2026-04-20 14:00 | -8.85288 | 13.23720 | 239 ft | 18 kts | 139° |
| 2026-04-20 14:00 | -8.85369 | 13.23794 | 236 ft | 9 kts | 141° |
| 2026-04-20 14:01 | -8.85417 | 13.23801 | 236 ft | 4 kts | 212° |
| 2026-04-20 14:01 | -8.85427 | 13.23792 | 236 ft | 0 kts | 226° |
| 2026-04-20 14:01 | -8.85428 | 13.23792 | 236 ft | 0 kts | 226° |
| 2026-04-20 14:01 | -8.85472 | 13.23744 | 237 ft | 29 kts | 227° |
| 2026-04-20 14:02 | -8.85740 | 13.23456 | 243 ft | 81 kts | 226° |
| 2026-04-20 14:02 | -8.86247 | 13.22918 | 248 ft | 129 kts | 227° |
| 2026-04-20 14:02 | -8.86957 | 13.22154 | 285 ft | 167 kts | 227° |
| 2026-04-20 14:02 | -8.87776 | 13.21275 | 653 ft | 176 kts | 228° |
| 2026-04-20 14:03 | -8.88622 | 13.20367 | 1140 ft | 184 kts | 227° |
| 2026-04-20 14:03 | -8.89527 | 13.19502 | 1710 ft | 179 kts | 212° |
| 2026-04-20 14:03 | -8.90721 | 13.19190 | 2106 ft | 180 kts | 170° |
| 2026-04-20 14:03 | -8.91894 | 13.19677 | 2368 ft | 190 kts | 148° |
| 2026-04-20 14:04 | -8.93088 | 13.20381 | 2532 ft | 211 kts | 149° |
| 2026-04-20 14:04 | -8.94459 | 13.21185 | 2546 ft | 244 kts | 148° |
| 2026-04-20 14:04 | -8.96019 | 13.22111 | 2659 ft | 274 kts | 149° |
| 2026-04-20 14:04 | -8.97648 | 13.23058 | 3535 ft | 272 kts | 149° |
| 2026-04-20 14:05 | -8.99311 | 13.24027 | 4288 ft | 275 kts | 149° |
| 2026-04-20 14:05 | -9.00956 | 13.24983 | 5111 ft | 275 kts | 149° |
| 2026-04-20 14:05 | -9.02612 | 13.25946 | 5799 ft | 279 kts | 149° |
| 2026-04-20 14:05 | -9.04277 | 13.26916 | 6567 ft | 280 kts | 149° |
| 2026-04-20 14:06 | -9.05950 | 13.27898 | 7321 ft | 281 kts | 149° |
| 2026-04-20 14:06 | -9.07469 | 13.28795 | 7928 ft | 284 kts | 149° |
| 2026-04-20 14:06 | -9.09261 | 13.29705 | 8610 ft | 288 kts | 158° |
| 2026-04-20 14:06 | -9.11172 | 13.30372 | 9318 ft | 291 kts | 161° |
| 2026-04-20 14:07 | -9.13068 | 13.31008 | 9976 ft | 294 kts | 161° |
| 2026-04-20 14:07 | -9.15118 | 13.31676 | 10057 ft | 319 kts | 162° |
| 2026-04-20 14:07 | -9.17321 | 13.32373 | 10085 ft | 345 kts | 162° |
| 2026-04-20 14:07 | -9.19682 | 13.33115 | 10137 ft | 369 kts | 162° |
| 2026-04-20 14:08 | -9.22146 | 13.33885 | 10835 ft | 372 kts | 162° |
| 2026-04-20 14:08 | -9.24600 | 13.34651 | 11633 ft | 372 kts | 162° |
| 2026-04-20 14:08 | -9.27061 | 13.35419 | 12272 ft | 376 kts | 162° |
| 2026-04-20 14:08 | -9.29538 | 13.36191 | 12939 ft | 379 kts | 163° |
| 2026-04-20 14:09 | -9.32074 | 13.36981 | 13611 ft | 382 kts | 163° |
| 2026-04-20 14:09 | -9.34602 | 13.37769 | 14251 ft | 385 kts | 163° |
| 2026-04-20 14:09 | -9.37167 | 13.38569 | 14882 ft | 388 kts | 163° |
| 2026-04-20 14:09 | -9.39756 | 13.39377 | 15501 ft | 390 kts | 163° |
| 2026-04-20 14:10 | -9.42347 | 13.40185 | 16100 ft | 393 kts | 163° |
| 2026-04-20 14:10 | -9.44957 | 13.40999 | 16685 ft | 396 kts | 163° |
| 2026-04-20 14:10 | -9.47618 | 13.41829 | 17261 ft | 399 kts | 163° |
| 2026-04-20 14:10 | -9.50257 | 13.42653 | 17814 ft | 402 kts | 163° |
| 2026-04-20 14:11 | -9.52918 | 13.43484 | 18355 ft | 404 kts | 163° |
| 2026-04-20 14:11 | -9.55596 | 13.44319 | 18880 ft | 407 kts | 163° |
| 2026-04-20 14:11 | -9.58298 | 13.45163 | 19393 ft | 410 kts | 163° |
| 2026-04-20 14:11 | -9.61017 | 13.46012 | 19891 ft | 412 kts | 163° |
| 2026-04-20 14:12 | -9.63785 | 13.46877 | 20381 ft | 415 kts | 163° |
| 2026-04-20 14:12 | -9.66559 | 13.47743 | 20855 ft | 418 kts | 163° |
| 2026-04-20 14:12 | -9.69307 | 13.48602 | 21310 ft | 420 kts | 163° |
| 2026-04-20 14:12 | -9.72094 | 13.49473 | 21755 ft | 423 kts | 163° |
| 2026-04-20 14:13 | -9.74927 | 13.50358 | 22190 ft | 425 kts | 164° |
| 2026-04-20 14:13 | -9.77774 | 13.51248 | 22613 ft | 428 kts | 164° |
| 2026-04-20 14:13 | -9.80611 | 13.52135 | 23021 ft | 431 kts | 164° |
| 2026-04-20 14:13 | -9.83452 | 13.53023 | 23416 ft | 433 kts | 164° |
| 2026-04-20 14:14 | -9.86332 | 13.53924 | 23801 ft | 435 kts | 164° |
| 2026-04-20 14:14 | -9.89242 | 13.54835 | 24176 ft | 438 kts | 164° |
| 2026-04-20 14:14 | -9.92165 | 13.55749 | 24541 ft | 440 kts | 164° |
| 2026-04-20 14:14 | -9.95092 | 13.56665 | 24897 ft | 443 kts | 164° |
| 2026-04-20 14:15 | -9.98009 | 13.57578 | 25243 ft | 445 kts | 164° |
| 2026-04-20 14:15 | -10.00983 | 13.58509 | 25584 ft | 447 kts | 164° |
| 2026-04-20 14:15 | -10.03957 | 13.59440 | 25915 ft | 449 kts | 165° |
| 2026-04-20 14:15 | -10.06914 | 13.60366 | 26234 ft | 451 kts | 165° |
| 2026-04-20 14:16 | -10.09921 | 13.61308 | 26550 ft | 453 kts | 165° |
| 2026-04-20 14:16 | -10.12945 | 13.62250 | 26858 ft | 455 kts | 165° |
| 2026-04-20 14:16 | -10.15988 | 13.63153 | 27242 ft | 455 kts | 166° |
| 2026-04-20 14:16 | -10.19022 | 13.64049 | 27677 ft | 453 kts | 166° |
| 2026-04-20 14:17 | -10.22035 | 13.64942 | 28072 ft | 453 kts | 166° |
| 2026-04-20 14:17 | -10.25081 | 13.65847 | 28434 ft | 452 kts | 166° |
| 2026-04-20 14:17 | -10.28083 | 13.66741 | 28786 ft | 452 kts | 166° |
| 2026-04-20 14:17 | -10.31077 | 13.67627 | 29134 ft | 451 kts | 166° |
| 2026-04-20 14:18 | -10.34103 | 13.68522 | 29469 ft | 451 kts | 166° |
| 2026-04-20 14:18 | -10.37081 | 13.69403 | 29788 ft | 450 kts | 166° |
| 2026-04-20 14:18 | -10.40090 | 13.70293 | 30101 ft | 450 kts | 166° |
| 2026-04-20 14:18 | -10.42988 | 13.71151 | 30390 ft | 450 kts | 166° |
| 2026-04-20 14:19 | -10.46005 | 13.72044 | 30683 ft | 449 kts | 166° |
| 2026-04-20 14:19 | -10.48986 | 13.72926 | 30960 ft | 449 kts | 166° |
| 2026-04-20 14:19 | -10.51997 | 13.73818 | 31232 ft | 449 kts | 166° |
| 2026-04-20 14:19 | -10.54956 | 13.74694 | 31491 ft | 449 kts | 166° |
| 2026-04-20 14:20 | -10.57967 | 13.75586 | 31746 ft | 448 kts | 166° |
| 2026-04-20 14:20 | -10.60972 | 13.76477 | 31963 ft | 449 kts | 166° |
| 2026-04-20 14:20 | -10.63924 | 13.77351 | 32190 ft | 449 kts | 166° |
| 2026-04-20 14:20 | -10.66937 | 13.78245 | 32426 ft | 448 kts | 166° |
| 2026-04-20 14:21 | -10.69908 | 13.79125 | 32645 ft | 448 kts | 166° |
| 2026-04-20 14:21 | -10.72933 | 13.80022 | 32855 ft | 448 kts | 166° |
| 2026-04-20 14:21 | -10.75880 | 13.80896 | 33054 ft | 448 kts | 167° |
| 2026-04-20 14:21 | -10.78897 | 13.81791 | 33254 ft | 448 kts | 167° |
| 2026-04-20 14:22 | -10.81878 | 13.82676 | 33445 ft | 447 kts | 167° |
| 2026-04-20 14:22 | -10.84868 | 13.83563 | 33627 ft | 447 kts | 167° |
| 2026-04-20 14:22 | -10.87847 | 13.84447 | 33800 ft | 447 kts | 167° |
| 2026-04-20 14:22 | -10.90825 | 13.85331 | 33948 ft | 448 kts | 167° |
| 2026-04-20 14:23 | -10.96800 | 13.87106 | 34132 ft | 451 kts | 168° |
| 2026-04-20 14:23 | -11.02853 | 13.88903 | 34281 ft | 455 kts | 168° |
| 2026-04-20 14:24 | -11.08962 | 13.90719 | 34537 ft | 456 kts | 168° |
| 2026-04-20 14:24 | -11.11999 | 13.91621 | 34722 ft | 455 kts | 168° |
| 2026-04-20 14:24 | -11.15004 | 13.92512 | 34848 ft | 455 kts | 168° |
| 2026-04-20 14:25 | -11.18066 | 13.93423 | 34992 ft | 455 kts | 168° |
| 2026-04-20 14:25 | -11.21069 | 13.94316 | 35143 ft | 454 kts | 168° |
| 2026-04-20 14:25 | -11.24113 | 13.95222 | 35312 ft | 453 kts | 168° |
| 2026-04-20 14:25 | -11.27144 | 13.96124 | 35414 ft | 453 kts | 168° |
| 2026-04-20 14:26 | -11.30178 | 13.97027 | 35546 ft | 453 kts | 168° |
| 2026-04-20 14:26 | -11.33187 | 13.97923 | 35663 ft | 453 kts | 168° |
| 2026-04-20 14:26 | -11.36180 | 13.98814 | 35781 ft | 452 kts | 168° |
| 2026-04-20 14:26 | -11.39218 | 13.99719 | 35893 ft | 452 kts | 168° |
| 2026-04-20 14:27 | -11.45210 | 14.01504 | 36110 ft | 451 kts | 168° |
| 2026-04-20 14:27 | -11.51246 | 14.03301 | 36273 ft | 451 kts | 169° |
| 2026-04-20 14:28 | -11.57264 | 14.05083 | 36461 ft | 451 kts | 169° |
| 2026-04-20 14:28 | -11.63267 | 14.06861 | 36604 ft | 451 kts | 169° |
| 2026-04-20 14:29 | -11.69305 | 14.08651 | 36752 ft | 451 kts | 169° |
| 2026-04-20 14:29 | -11.75310 | 14.10431 | 36883 ft | 451 kts | 169° |
| 2026-04-20 14:30 | -11.81304 | 14.12209 | 37002 ft | 450 kts | 169° |
| 2026-04-20 14:30 | -11.87218 | 14.13964 | 37031 ft | 440 kts | 169° |
| 2026-04-20 14:31 | -11.93099 | 14.15709 | 37016 ft | 444 kts | 169° |
| 2026-04-20 14:31 | -11.99056 | 14.17479 | 37027 ft | 446 kts | 169° |
| 2026-04-20 14:32 | -12.05003 | 14.19246 | 37020 ft | 450 kts | 169° |
| 2026-04-20 14:32 | -12.11031 | 14.21038 | 37022 ft | 451 kts | 169° |
| 2026-04-20 14:33 | -12.17055 | 14.22828 | 37022 ft | 450 kts | 169° |
| 2026-04-20 14:33 | -12.23061 | 14.24614 | 37022 ft | 450 kts | 169° |
| 2026-04-20 14:34 | -12.29077 | 14.26406 | 37022 ft | 450 kts | 169° |
| 2026-04-20 14:34 | -12.35087 | 14.28196 | 37021 ft | 450 kts | 169° |
| 2026-04-20 14:35 | -12.41080 | 14.29981 | 37023 ft | 450 kts | 169° |
| 2026-04-20 14:35 | -12.47084 | 14.31771 | 37021 ft | 450 kts | 169° |
| 2026-04-20 14:36 | -12.53065 | 14.33556 | 37022 ft | 451 kts | 169° |
| 2026-04-20 14:36 | -12.59064 | 14.35346 | 37023 ft | 450 kts | 169° |
| 2026-04-20 14:37 | -12.65060 | 14.37136 | 37021 ft | 450 kts | 169° |
| 2026-04-20 14:37 | -12.70986 | 14.38907 | 37022 ft | 451 kts | 169° |
| 2026-04-20 14:38 | -12.76956 | 14.40696 | 37023 ft | 450 kts | 169° |
| 2026-04-20 14:38 | -12.82969 | 14.42499 | 37021 ft | 450 kts | 169° |
| 2026-04-20 14:39 | -12.88921 | 14.44284 | 37024 ft | 450 kts | 169° |
| 2026-04-20 14:39 | -12.94929 | 14.46088 | 37021 ft | 449 kts | 169° |
| 2026-04-20 14:40 | -13.00910 | 14.47884 | 37023 ft | 450 kts | 169° |
| 2026-04-20 14:40 | -13.06893 | 14.49681 | 37022 ft | 451 kts | 169° |
| 2026-04-20 14:41 | -13.12873 | 14.51477 | 37023 ft | 450 kts | 169° |
| 2026-04-20 14:41 | -13.18887 | 14.53284 | 37023 ft | 450 kts | 169° |
| 2026-04-20 14:42 | -13.24869 | 14.55084 | 37022 ft | 450 kts | 169° |
| 2026-04-20 14:42 | -13.30843 | 14.56882 | 37023 ft | 450 kts | 169° |
| 2026-04-20 14:43 | -13.36842 | 14.58689 | 37022 ft | 450 kts | 169° |
| 2026-04-20 14:43 | -13.42817 | 14.60490 | 37023 ft | 450 kts | 169° |
| 2026-04-20 14:44 | -13.48831 | 14.62303 | 37023 ft | 450 kts | 169° |
| 2026-04-20 14:44 | -13.54809 | 14.64106 | 37023 ft | 450 kts | 169° |
| 2026-04-20 14:45 | -13.60787 | 14.65916 | 37020 ft | 450 kts | 169° |
| 2026-04-20 14:45 | -13.66762 | 14.67727 | 37022 ft | 450 kts | 169° |
| 2026-04-20 14:46 | -13.72680 | 14.69515 | 37019 ft | 450 kts | 169° |
| 2026-04-20 14:46 | -13.78645 | 14.71318 | 37022 ft | 450 kts | 169° |
| 2026-04-20 14:47 | -13.84652 | 14.73136 | 37020 ft | 450 kts | 169° |
| 2026-04-20 14:48 | -13.93613 | 14.75848 | 37019 ft | 450 kts | 169° |
| 2026-04-20 14:48 | -13.99603 | 14.77662 | 37022 ft | 450 kts | 169° |
| 2026-04-20 14:49 | -14.05584 | 14.79475 | 37020 ft | 450 kts | 169° |
| 2026-04-20 14:49 | -14.11560 | 14.81286 | 37022 ft | 450 kts | 169° |
| 2026-04-20 14:50 | -14.17573 | 14.83108 | 37020 ft | 450 kts | 169° |
| 2026-04-20 14:50 | -14.23545 | 14.84921 | 37021 ft | 450 kts | 169° |
| 2026-04-20 14:51 | -14.29527 | 14.86737 | 37021 ft | 450 kts | 169° |
| 2026-04-20 14:51 | -14.35516 | 14.88557 | 37020 ft | 450 kts | 169° |
| 2026-04-20 14:52 | -14.41505 | 14.90379 | 37022 ft | 449 kts | 169° |
| 2026-04-20 14:52 | -14.47437 | 14.92183 | 37020 ft | 448 kts | 169° |
| 2026-04-20 14:53 | -14.53390 | 14.93995 | 37022 ft | 447 kts | 169° |
| 2026-04-20 14:53 | -14.59315 | 14.95799 | 37020 ft | 446 kts | 169° |
| 2026-04-20 14:54 | -14.65272 | 14.97615 | 37021 ft | 445 kts | 168° |
| 2026-04-20 14:54 | -14.71060 | 14.99379 | 37022 ft | 444 kts | 168° |
| 2026-04-20 14:55 | -14.76984 | 15.01187 | 37021 ft | 443 kts | 168° |
| 2026-04-20 14:55 | -14.82861 | 15.02980 | 37022 ft | 443 kts | 168° |
| 2026-04-20 14:56 | -14.88744 | 15.04777 | 37020 ft | 442 kts | 168° |
| 2026-04-20 14:56 | -14.94601 | 15.06566 | 37022 ft | 444 kts | 168° |
| 2026-04-20 14:57 | -15.00556 | 15.08387 | 37021 ft | 447 kts | 167° |
| 2026-04-20 14:57 | -15.06504 | 15.10207 | 37022 ft | 449 kts | 167° |
| 2026-04-20 14:58 | -15.12489 | 15.12039 | 37021 ft | 448 kts | 167° |
| 2026-04-20 14:58 | -15.18431 | 15.13857 | 37022 ft | 447 kts | 167° |
| 2026-04-20 14:59 | -15.24371 | 15.15677 | 37022 ft | 448 kts | 167° |
| 2026-04-20 14:59 | -15.30318 | 15.17501 | 37021 ft | 448 kts | 167° |
| 2026-04-20 15:00 | -15.36286 | 15.19332 | 37022 ft | 448 kts | 167° |
| 2026-04-20 15:00 | -15.42227 | 15.21156 | 37022 ft | 448 kts | 167° |
| 2026-04-20 15:01 | -15.48183 | 15.22986 | 37021 ft | 448 kts | 167° |
| 2026-04-20 15:01 | -15.54138 | 15.24817 | 37022 ft | 448 kts | 167° |
| 2026-04-20 15:02 | -15.60088 | 15.26647 | 37021 ft | 448 kts | 167° |
| 2026-04-20 15:02 | -15.66018 | 15.28472 | 37022 ft | 448 kts | 167° |
| 2026-04-20 15:03 | -15.71900 | 15.30283 | 37022 ft | 448 kts | 167° |
| 2026-04-20 15:03 | -15.77824 | 15.32109 | 37022 ft | 448 kts | 167° |
| 2026-04-20 15:04 | -15.83768 | 15.33942 | 37022 ft | 448 kts | 167° |
| 2026-04-20 15:04 | -15.89712 | 15.35775 | 37021 ft | 448 kts | 167° |
| 2026-04-20 15:05 | -15.95669 | 15.37614 | 37023 ft | 448 kts | 167° |
| 2026-04-20 15:05 | -16.01605 | 15.39448 | 37022 ft | 448 kts | 167° |
| 2026-04-20 15:06 | -16.07577 | 15.41294 | 37022 ft | 448 kts | 167° |
| 2026-04-20 15:06 | -16.13541 | 15.43136 | 37022 ft | 447 kts | 167° |
| 2026-04-20 15:07 | -16.19511 | 15.44983 | 37023 ft | 447 kts | 167° |
| 2026-04-20 15:07 | -16.25444 | 15.46820 | 37022 ft | 447 kts | 167° |
| 2026-04-20 15:08 | -16.31376 | 15.48658 | 37022 ft | 447 kts | 167° |
| 2026-04-20 15:08 | -16.37320 | 15.50501 | 37022 ft | 447 kts | 167° |
| 2026-04-20 15:09 | -16.43277 | 15.52350 | 37022 ft | 447 kts | 167° |
| 2026-04-20 15:09 | -16.49223 | 15.54195 | 37022 ft | 447 kts | 167° |
| 2026-04-20 15:10 | -16.55138 | 15.56033 | 37022 ft | 447 kts | 167° |
| 2026-04-20 15:10 | -16.61101 | 15.57887 | 37022 ft | 447 kts | 167° |
| 2026-04-20 15:11 | -16.66949 | 15.59706 | 37023 ft | 447 kts | 167° |
| 2026-04-20 15:11 | -16.72902 | 15.61559 | 37022 ft | 447 kts | 167° |
| 2026-04-20 15:12 | -16.78844 | 15.63410 | 37022 ft | 447 kts | 167° |
| 2026-04-20 15:12 | -16.84801 | 15.65266 | 37021 ft | 447 kts | 167° |
| 2026-04-20 15:13 | -16.90709 | 15.67121 | 37020 ft | 447 kts | 167° |
| 2026-04-20 15:13 | -16.96675 | 15.68982 | 37022 ft | 447 kts | 167° |
| 2026-04-20 15:14 | -17.02626 | 15.70841 | 37019 ft | 450 kts | 167° |
| 2026-04-20 15:14 | -17.08630 | 15.72716 | 37023 ft | 454 kts | 167° |
| 2026-04-20 15:15 | -17.14679 | 15.74606 | 37022 ft | 457 kts | 166° |
| 2026-04-20 15:15 | -17.20799 | 15.76521 | 37020 ft | 461 kts | 166° |
| 2026-04-20 15:16 | -17.26928 | 15.78440 | 37021 ft | 463 kts | 166° |
| 2026-04-20 15:16 | -17.33046 | 15.80357 | 37020 ft | 462 kts | 166° |
| 2026-04-20 15:17 | -17.39156 | 15.82487 | 37022 ft | 465 kts | 156° |
| 2026-04-20 15:17 | -17.44636 | 15.86095 | 37027 ft | 469 kts | 149° |
| 2026-04-20 15:18 | -17.50073 | 15.89821 | 37017 ft | 469 kts | 149° |
| 2026-04-20 15:18 | -17.55491 | 15.93573 | 37023 ft | 468 kts | 149° |
| 2026-04-20 15:19 | -17.60902 | 15.97324 | 37022 ft | 469 kts | 149° |
| 2026-04-20 15:19 | -17.66266 | 16.01044 | 37019 ft | 469 kts | 149° |
| 2026-04-20 15:20 | -17.71659 | 16.04788 | 37025 ft | 468 kts | 149° |
| 2026-04-20 15:20 | -17.77086 | 16.08558 | 37020 ft | 469 kts | 149° |
| 2026-04-20 15:21 | -17.82501 | 16.12322 | 37023 ft | 468 kts | 149° |
| 2026-04-20 15:21 | -17.87913 | 16.16088 | 37022 ft | 469 kts | 149° |
| 2026-04-20 15:22 | -17.93315 | 16.19848 | 37021 ft | 469 kts | 149° |
| 2026-04-20 15:22 | -17.98725 | 16.23617 | 37023 ft | 468 kts | 149° |
| 2026-04-20 15:23 | -18.04169 | 16.27413 | 37021 ft | 469 kts | 149° |
| 2026-04-20 15:23 | -18.09560 | 16.31175 | 37023 ft | 468 kts | 149° |
| 2026-04-20 15:24 | -18.15225 | 16.34426 | 37034 ft | 460 kts | 168° |
| 2026-04-20 15:24 | -18.21484 | 16.35618 | 37024 ft | 460 kts | 174° |
| 2026-04-20 15:25 | -18.27753 | 16.36718 | 37019 ft | 458 kts | 174° |
| 2026-04-20 15:25 | -18.34027 | 16.37786 | 37024 ft | 458 kts | 174° |
| 2026-04-20 15:26 | -18.40300 | 16.38852 | 37021 ft | 458 kts | 174° |
| 2026-04-20 15:26 | -18.46555 | 16.39916 | 37022 ft | 458 kts | 174° |
| 2026-04-20 15:27 | -18.52830 | 16.40983 | 37026 ft | 460 kts | 174° |
| 2026-04-20 15:27 | -18.59050 | 16.42044 | 37019 ft | 461 kts | 174° |
| 2026-04-20 15:28 | -18.65329 | 16.43114 | 37024 ft | 460 kts | 174° |
| 2026-04-20 15:28 | -18.71626 | 16.44188 | 37022 ft | 460 kts | 174° |
| 2026-04-20 15:29 | -18.77922 | 16.45263 | 37022 ft | 460 kts | 174° |
| 2026-04-20 15:29 | -18.84217 | 16.46540 | 37024 ft | 461 kts | 172° |
| 2026-04-20 15:30 | -18.90481 | 16.47847 | 37021 ft | 461 kts | 172° |
| 2026-04-20 15:30 | -18.96778 | 16.49170 | 37024 ft | 463 kts | 172° |
| 2026-04-20 15:31 | -19.03086 | 16.50495 | 37022 ft | 466 kts | 172° |
| 2026-04-20 15:31 | -19.09390 | 16.51821 | 37023 ft | 466 kts | 172° |
| 2026-04-20 15:32 | -19.15774 | 16.53162 | 37022 ft | 465 kts | 172° |
| 2026-04-20 15:32 | -19.22099 | 16.54494 | 37021 ft | 466 kts | 172° |
| 2026-04-20 15:33 | -19.28433 | 16.55829 | 37023 ft | 466 kts | 172° |
| 2026-04-20 15:33 | -19.34786 | 16.57169 | 37021 ft | 465 kts | 172° |
| 2026-04-20 15:34 | -19.41075 | 16.58496 | 37023 ft | 466 kts | 172° |
| 2026-04-20 15:34 | -19.47412 | 16.59835 | 37022 ft | 466 kts | 172° |
| 2026-04-20 15:35 | -19.53750 | 16.61175 | 37023 ft | 465 kts | 172° |
| 2026-04-20 15:35 | -19.60065 | 16.62511 | 37023 ft | 466 kts | 172° |
| 2026-04-20 15:36 | -19.66316 | 16.63835 | 37022 ft | 465 kts | 172° |
| 2026-04-20 15:36 | -19.72630 | 16.65173 | 37022 ft | 465 kts | 172° |
| 2026-04-20 15:37 | -19.78954 | 16.66527 | 37020 ft | 466 kts | 172° |
| 2026-04-20 15:37 | -19.85278 | 16.67868 | 37023 ft | 466 kts | 172° |
| 2026-04-20 15:38 | -19.91601 | 16.69212 | 37021 ft | 465 kts | 172° |
| 2026-04-20 15:38 | -19.97925 | 16.70556 | 37022 ft | 465 kts | 172° |
| 2026-04-20 15:39 | -20.04274 | 16.71907 | 37022 ft | 466 kts | 172° |
| 2026-04-20 15:39 | -20.10598 | 16.73254 | 37021 ft | 465 kts | 172° |
| 2026-04-20 15:40 | -20.16943 | 16.74605 | 37021 ft | 465 kts | 172° |
| 2026-04-20 15:40 | -20.23260 | 16.75953 | 37020 ft | 465 kts | 172° |
| 2026-04-20 15:41 | -20.29597 | 16.77306 | 37021 ft | 465 kts | 172° |
| 2026-04-20 15:41 | -20.35913 | 16.78655 | 37021 ft | 465 kts | 172° |
| 2026-04-20 15:42 | -20.42221 | 16.80004 | 37021 ft | 465 kts | 172° |
| 2026-04-20 15:42 | -20.48563 | 16.81362 | 37021 ft | 465 kts | 172° |
| 2026-04-20 15:43 | -20.54872 | 16.82713 | 37021 ft | 465 kts | 172° |
| 2026-04-20 15:43 | -20.61180 | 16.84065 | 37021 ft | 465 kts | 172° |
| 2026-04-20 15:44 | -20.67380 | 16.85396 | 37021 ft | 464 kts | 172° |
| 2026-04-20 15:44 | -20.73714 | 16.86756 | 37022 ft | 464 kts | 172° |
| 2026-04-20 15:45 | -20.79997 | 16.88106 | 37022 ft | 464 kts | 172° |
| 2026-04-20 15:45 | -20.86300 | 16.89462 | 37021 ft | 464 kts | 172° |
| 2026-04-20 15:46 | -20.92609 | 16.90821 | 37022 ft | 463 kts | 172° |
| 2026-04-20 15:46 | -20.98882 | 16.92173 | 37021 ft | 463 kts | 172° |
| 2026-04-20 15:47 | -21.05169 | 16.93529 | 37022 ft | 465 kts | 172° |
| 2026-04-20 15:47 | -21.11515 | 16.94899 | 37020 ft | 465 kts | 173° |
| 2026-04-20 15:48 | -21.17837 | 16.96286 | 37021 ft | 465 kts | 172° |
| 2026-04-20 15:48 | -21.24147 | 16.97723 | 37021 ft | 465 kts | 172° |
| 2026-04-20 15:49 | -21.30461 | 16.99161 | 37020 ft | 465 kts | 172° |
| 2026-04-20 15:49 | -21.36729 | 17.00590 | 37022 ft | 464 kts | 172° |
| 2026-04-20 15:50 | -21.43029 | 17.02028 | 37020 ft | 464 kts | 172° |
| 2026-04-20 15:50 | -21.49337 | 17.03468 | 37022 ft | 463 kts | 172° |
| 2026-04-20 15:51 | -21.55591 | 17.04898 | 37021 ft | 463 kts | 172° |
| 2026-04-20 15:51 | -21.61883 | 17.06338 | 37022 ft | 463 kts | 172° |
| 2026-04-20 15:52 | -21.68054 | 17.07751 | 37022 ft | 463 kts | 172° |
| 2026-04-20 15:52 | -21.74255 | 17.09770 | 37029 ft | 470 kts | 158° |
| 2026-04-20 15:53 | -21.83097 | 17.14214 | 37023 ft | 470 kts | 158° |
| 2026-04-20 15:53 | -21.89016 | 17.17207 | 37020 ft | 470 kts | 158° |
| 2026-04-20 15:54 | -21.94911 | 17.20192 | 37025 ft | 470 kts | 158° |
| 2026-04-20 15:54 | -22.00779 | 17.23164 | 37020 ft | 470 kts | 158° |
| 2026-04-20 15:55 | -22.06668 | 17.26150 | 37024 ft | 470 kts | 158° |
| 2026-04-20 15:55 | -22.12565 | 17.29141 | 37020 ft | 470 kts | 158° |
| 2026-04-20 15:56 | -22.18494 | 17.32150 | 37023 ft | 470 kts | 158° |
| 2026-04-20 15:56 | -22.24374 | 17.35140 | 37021 ft | 470 kts | 158° |
| 2026-04-20 15:57 | -22.30272 | 17.38142 | 37022 ft | 470 kts | 158° |
| 2026-04-20 15:57 | -22.36173 | 17.41148 | 37022 ft | 470 kts | 158° |
| 2026-04-20 15:58 | -22.42051 | 17.44146 | 37022 ft | 470 kts | 158° |
| 2026-04-20 15:58 | -22.48035 | 17.46931 | 37025 ft | 464 kts | 169° |
| 2026-04-20 15:59 | -22.54315 | 17.48089 | 37027 ft | 461 kts | 175° |
| 2026-04-20 15:59 | -22.60648 | 17.49160 | 37019 ft | 461 kts | 176° |
| 2026-04-20 16:00 | -22.66832 | 17.50175 | 37024 ft | 460 kts | 176° |
| 2026-04-20 16:00 | -22.73135 | 17.51209 | 37023 ft | 461 kts | 176° |
| 2026-04-20 16:01 | -22.79431 | 17.52242 | 37022 ft | 460 kts | 176° |
| 2026-04-20 16:01 | -22.85769 | 17.53284 | 37024 ft | 460 kts | 176° |
| 2026-04-20 16:02 | -22.92071 | 17.54322 | 37036 ft | 460 kts | 176° |
| 2026-04-20 16:02 | -22.98364 | 17.55358 | 37057 ft | 462 kts | 177° |
| 2026-04-20 16:03 | -23.04708 | 17.56404 | 37079 ft | 462 kts | 178° |
| 2026-04-20 16:03 | -23.11049 | 17.57449 | 37076 ft | 461 kts | 178° |
| 2026-04-20 16:04 | -23.17362 | 17.58491 | 37075 ft | 461 kts | 178° |
| 2026-04-20 16:04 | -23.23691 | 17.59536 | 37078 ft | 461 kts | 178° |
| 2026-04-20 16:05 | -23.30026 | 17.60578 | 37075 ft | 461 kts | 178° |
| 2026-04-20 16:05 | -23.36332 | 17.61615 | 37078 ft | 461 kts | 178° |
| 2026-04-20 16:06 | -23.42647 | 17.62655 | 37076 ft | 461 kts | 178° |
| 2026-04-20 16:06 | -23.48986 | 17.63699 | 37077 ft | 461 kts | 178° |
| 2026-04-20 16:07 | -23.55315 | 17.64739 | 37077 ft | 461 kts | 178° |
| 2026-04-20 16:07 | -23.61641 | 17.65789 | 37077 ft | 461 kts | 177° |
| 2026-04-20 16:08 | -23.67958 | 17.66831 | 37073 ft | 461 kts | 177° |
| 2026-04-20 16:08 | -23.74147 | 17.67851 | 37076 ft | 461 kts | 177° |
| 2026-04-20 16:09 | -23.80506 | 17.68891 | 37075 ft | 461 kts | 178° |
| 2026-04-20 16:09 | -23.86797 | 17.69915 | 37075 ft | 461 kts | 178° |
| 2026-04-20 16:10 | -23.93106 | 17.70942 | 37075 ft | 460 kts | 178° |
| 2026-04-20 16:10 | -23.99431 | 17.71972 | 37075 ft | 461 kts | 178° |
| 2026-04-20 16:11 | -24.05722 | 17.72999 | 37076 ft | 461 kts | 178° |
| 2026-04-20 16:11 | -24.12083 | 17.74037 | 37073 ft | 460 kts | 178° |
| 2026-04-20 16:12 | -24.18363 | 17.75063 | 37076 ft | 460 kts | 178° |
| 2026-04-20 16:12 | -24.24680 | 17.76097 | 37074 ft | 460 kts | 178° |
| 2026-04-20 16:13 | -24.31011 | 17.77133 | 37075 ft | 460 kts | 178° |
| 2026-04-20 16:13 | -24.37321 | 17.78168 | 37074 ft | 460 kts | 178° |
| 2026-04-20 16:14 | -24.43620 | 17.79201 | 37074 ft | 460 kts | 178° |
| 2026-04-20 16:14 | -24.49931 | 17.80235 | 37076 ft | 460 kts | 178° |
| 2026-04-20 16:15 | -24.56244 | 17.81248 | 37074 ft | 460 kts | 178° |
| 2026-04-20 16:15 | -24.62537 | 17.82260 | 37076 ft | 460 kts | 178° |
| 2026-04-20 16:16 | -24.68825 | 17.83272 | 37075 ft | 460 kts | 178° |
| 2026-04-20 16:16 | -24.75040 | 17.84272 | 37076 ft | 460 kts | 178° |
| 2026-04-20 16:17 | -24.81338 | 17.85287 | 37075 ft | 460 kts | 178° |
| 2026-04-20 16:17 | -24.87658 | 17.86307 | 37076 ft | 459 kts | 178° |
| 2026-04-20 16:18 | -24.93959 | 17.87324 | 37074 ft | 459 kts | 178° |
| 2026-04-20 16:18 | -25.00248 | 17.88341 | 37076 ft | 460 kts | 178° |
| 2026-04-20 16:19 | -25.06614 | 17.89378 | 37076 ft | 465 kts | 178° |
| 2026-04-20 16:19 | -25.13001 | 17.90421 | 37074 ft | 470 kts | 177° |
| 2026-04-20 16:20 | -25.19469 | 17.91481 | 37076 ft | 470 kts | 177° |
| 2026-04-20 16:20 | -25.25870 | 17.92530 | 37073 ft | 468 kts | 177° |
| 2026-04-20 16:21 | -25.32326 | 17.93588 | 37076 ft | 469 kts | 177° |
| 2026-04-20 16:21 | -25.38716 | 17.94638 | 37074 ft | 469 kts | 177° |
| 2026-04-20 16:22 | -25.45178 | 17.95700 | 37075 ft | 468 kts | 177° |
| 2026-04-20 16:22 | -25.51583 | 17.96754 | 37075 ft | 469 kts | 177° |
| 2026-04-20 16:23 | -25.57988 | 17.97809 | 37075 ft | 468 kts | 177° |
| 2026-04-20 16:23 | -25.64435 | 17.98873 | 37076 ft | 468 kts | 177° |
| 2026-04-20 16:24 | -25.70841 | 17.99930 | 37075 ft | 468 kts | 177° |
| 2026-04-20 16:24 | -25.77182 | 18.00979 | 37076 ft | 468 kts | 178° |
| 2026-04-20 16:25 | -25.83569 | 18.02035 | 37076 ft | 468 kts | 178° |
| 2026-04-20 16:25 | -25.90009 | 18.03102 | 37076 ft | 468 kts | 178° |
| 2026-04-20 16:26 | -25.96437 | 18.04168 | 37077 ft | 468 kts | 178° |
| 2026-04-20 16:26 | -26.02834 | 18.05230 | 37076 ft | 468 kts | 178° |
| 2026-04-20 16:27 | -26.09257 | 18.06297 | 37077 ft | 468 kts | 178° |
| 2026-04-20 16:27 | -26.15691 | 18.07367 | 37075 ft | 468 kts | 178° |
| 2026-04-20 16:28 | -26.22120 | 18.08438 | 37074 ft | 468 kts | 178° |
| 2026-04-20 16:28 | -26.28511 | 18.09504 | 37076 ft | 468 kts | 178° |
| 2026-04-20 16:29 | -26.34926 | 18.10574 | 37074 ft | 468 kts | 178° |
| 2026-04-20 16:29 | -26.41341 | 18.11647 | 37076 ft | 468 kts | 178° |
| 2026-04-20 16:30 | -26.47724 | 18.12714 | 37075 ft | 468 kts | 178° |
| 2026-04-20 16:30 | -26.54127 | 18.13787 | 37076 ft | 467 kts | 178° |
| 2026-04-20 16:31 | -26.60569 | 18.14867 | 37076 ft | 467 kts | 178° |
| 2026-04-20 16:31 | -26.66965 | 18.15941 | 37076 ft | 467 kts | 178° |
| 2026-04-20 16:32 | -26.73386 | 18.17016 | 37082 ft | 470 kts | 177° |
| 2026-04-20 16:32 | -26.79742 | 18.18089 | 37072 ft | 475 kts | 177° |
| 2026-04-20 16:33 | -26.86276 | 18.19191 | 37080 ft | 475 kts | 177° |
| 2026-04-20 16:33 | -26.92792 | 18.20290 | 37076 ft | 475 kts | 177° |
| 2026-04-20 16:34 | -26.99306 | 18.21389 | 37078 ft | 480 kts | 177° |
| 2026-04-20 16:34 | -27.05896 | 18.22503 | 37078 ft | 482 kts | 177° |
| 2026-04-20 16:35 | -27.12526 | 18.23625 | 37072 ft | 482 kts | 177° |
| 2026-04-20 16:35 | -27.19151 | 18.24747 | 37078 ft | 482 kts | 177° |
| 2026-04-20 16:36 | -27.25735 | 18.25864 | 37074 ft | 482 kts | 177° |
| 2026-04-20 16:36 | -27.32328 | 18.26984 | 37076 ft | 481 kts | 177° |
| 2026-04-20 16:37 | -27.38957 | 18.28111 | 37077 ft | 481 kts | 177° |
| 2026-04-20 16:37 | -27.45519 | 18.29229 | 37075 ft | 481 kts | 177° |
| 2026-04-20 16:38 | -27.52117 | 18.30338 | 37076 ft | 478 kts | 181° |
| 2026-04-20 16:38 | -27.58734 | 18.30690 | 37080 ft | 477 kts | 182° |
| 2026-04-20 16:39 | -27.65327 | 18.31248 | 37075 ft | 477 kts | 182° |
| 2026-04-20 16:39 | -27.71925 | 18.31789 | 37076 ft | 477 kts | 182° |
| 2026-04-20 16:40 | -27.78501 | 18.32329 | 37078 ft | 476 kts | 182° |
| 2026-04-20 16:40 | -27.84974 | 18.32860 | 37076 ft | 477 kts | 182° |
| 2026-04-20 16:41 | -27.91595 | 18.33403 | 37078 ft | 477 kts | 182° |
| 2026-04-20 16:41 | -27.98217 | 18.33945 | 37078 ft | 477 kts | 182° |
| 2026-04-20 16:42 | -28.04804 | 18.34483 | 37077 ft | 476 kts | 182° |
| 2026-04-20 16:42 | -28.11432 | 18.35038 | 37074 ft | 478 kts | 180° |
| 2026-04-20 16:43 | -28.18011 | 18.36280 | 37078 ft | 480 kts | 177° |
| 2026-04-20 16:43 | -28.24599 | 18.37619 | 37078 ft | 483 kts | 175° |
| 2026-04-20 16:44 | -28.31176 | 18.38992 | 37073 ft | 482 kts | 175° |
| 2026-04-20 16:44 | -28.37737 | 18.40369 | 37079 ft | 481 kts | 175° |
| 2026-04-20 16:45 | -28.44334 | 18.41754 | 37074 ft | 482 kts | 175° |
| 2026-04-20 16:45 | -28.50934 | 18.43143 | 37078 ft | 482 kts | 175° |
| 2026-04-20 16:46 | -28.57509 | 18.44527 | 37075 ft | 481 kts | 175° |
| 2026-04-20 16:46 | -28.64035 | 18.45903 | 37078 ft | 482 kts | 175° |
| 2026-04-20 16:47 | -28.70632 | 18.47296 | 37076 ft | 482 kts | 175° |
| 2026-04-20 16:47 | -28.77191 | 18.48683 | 37077 ft | 481 kts | 175° |
| 2026-04-20 16:48 | -28.83731 | 18.50067 | 37076 ft | 481 kts | 175° |
| 2026-04-20 16:48 | -28.90296 | 18.51458 | 37078 ft | 482 kts | 175° |
| 2026-04-20 16:49 | -28.96748 | 18.52827 | 37079 ft | 481 kts | 175° |
| 2026-04-20 16:49 | -29.03331 | 18.54227 | 37078 ft | 481 kts | 176° |
| 2026-04-20 16:50 | -29.09870 | 18.55617 | 37075 ft | 482 kts | 176° |
| 2026-04-20 16:50 | -29.16468 | 18.57023 | 37080 ft | 484 kts | 176° |
| 2026-04-20 16:51 | -29.23052 | 18.58424 | 37073 ft | 484 kts | 176° |
| 2026-04-20 16:51 | -29.29662 | 18.59839 | 37079 ft | 479 kts | 176° |
| 2026-04-20 16:52 | -29.36200 | 18.61235 | 37079 ft | 482 kts | 176° |
| 2026-04-20 16:52 | -29.42792 | 18.62648 | 37077 ft | 484 kts | 176° |
| 2026-04-20 16:53 | -29.49353 | 18.64051 | 37079 ft | 482 kts | 176° |
| 2026-04-20 16:53 | -29.55918 | 18.65465 | 37071 ft | 481 kts | 176° |
| 2026-04-20 16:54 | -29.62492 | 18.66884 | 37077 ft | 482 kts | 176° |
| 2026-04-20 16:54 | -29.69064 | 18.68309 | 37069 ft | 481 kts | 176° |
| 2026-04-20 16:55 | -29.75615 | 18.69713 | 37079 ft | 483 kts | 175° |
| 2026-04-20 16:55 | -29.82193 | 18.71135 | 37078 ft | 482 kts | 175° |
| 2026-04-20 16:56 | -29.88774 | 18.72557 | 37074 ft | 481 kts | 176° |
| 2026-04-20 16:56 | -29.95323 | 18.73974 | 37084 ft | 483 kts | 176° |
| 2026-04-20 16:57 | -30.01809 | 18.75387 | 37065 ft | 482 kts | 176° |
| 2026-04-20 16:57 | -30.08330 | 18.76790 | 37088 ft | 480 kts | 176° |
| 2026-04-20 16:58 | -30.14928 | 18.78225 | 37068 ft | 483 kts | 176° |
| 2026-04-20 16:58 | -30.21500 | 18.79662 | 37079 ft | 483 kts | 176° |
| 2026-04-20 16:59 | -30.27714 | 18.81021 | 37070 ft | 480 kts | 175° |
| 2026-04-20 16:59 | -30.33689 | 18.82218 | 37072 ft | 479 kts | 179° |
| 2026-04-20 17:00 | -30.43065 | 18.84243 | 37074 ft | 481 kts | 175° |
| 2026-04-20 17:01 | -30.48392 | 18.85451 | 37072 ft | 481 kts | 177° |
| 2026-04-20 17:01 | -30.54924 | 18.86975 | 37075 ft | 481 kts | 175° |
| 2026-04-20 17:02 | -30.61501 | 18.88398 | 37071 ft | 483 kts | 176° |
| 2026-04-20 17:02 | -30.68056 | 18.89846 | 37068 ft | 481 kts | 176° |
| 2026-04-20 17:03 | -30.74507 | 18.91268 | 37071 ft | 480 kts | 176° |
| 2026-04-20 17:03 | -30.75675 | 18.91524 | 37061 ft | 480 kts | 176° |
| 2026-04-20 17:04 | -30.86537 | 18.93913 | 37060 ft | 480 kts | 176° |
| 2026-04-20 17:04 | -30.94187 | 18.95606 | 37049 ft | 482 kts | 177° |
| 2026-04-20 17:05 | -31.00658 | 18.97042 | 37051 ft | 480 kts | 178° |
| 2026-04-20 17:05 | -31.07167 | 18.98480 | 37045 ft | 477 kts | 178° |
| 2026-04-20 17:06 | -31.13690 | 18.99933 | 37051 ft | 477 kts | 178° |
| 2026-04-20 17:06 | -31.20196 | 19.01374 | 37047 ft | 476 kts | 178° |
| 2026-04-20 17:07 | -31.26661 | 19.02813 | 37048 ft | 473 kts | 178° |
| 2026-04-20 17:07 | -31.33137 | 19.04255 | 37044 ft | 475 kts | 178° |
| 2026-04-20 17:08 | -31.39598 | 19.05695 | 37052 ft | 473 kts | 178° |
| 2026-04-20 17:08 | -31.45963 | 19.07120 | 37050 ft | 471 kts | 178° |
| 2026-04-20 17:09 | -31.52375 | 19.08551 | 37045 ft | 471 kts | 178° |
| 2026-04-20 17:09 | -31.58783 | 19.09989 | 37052 ft | 471 kts | 178° |
| 2026-04-20 17:10 | -31.65177 | 19.11424 | 37049 ft | 468 kts | 178° |
| 2026-04-20 17:10 | -31.71569 | 19.12858 | 37050 ft | 469 kts | 178° |
| 2026-04-20 17:11 | -31.77967 | 19.14299 | 37046 ft | 466 kts | 178° |
| 2026-04-20 17:11 | -31.84316 | 19.15729 | 37053 ft | 463 kts | 178° |
| 2026-04-20 17:12 | -31.90616 | 19.17151 | 37050 ft | 465 kts | 178° |
| 2026-04-20 17:12 | -31.97004 | 19.18595 | 37048 ft | 465 kts | 178° |
| 2026-04-20 17:13 | -32.03338 | 19.20026 | 37049 ft | 462 kts | 178° |
| 2026-04-20 17:13 | -32.09652 | 19.21459 | 37051 ft | 463 kts | 178° |
| 2026-04-20 17:14 | -32.15911 | 19.22876 | 37048 ft | 462 kts | 178° |
| 2026-04-20 17:14 | -32.22203 | 19.24306 | 37051 ft | 464 kts | 178° |
| 2026-04-20 17:15 | -32.28488 | 19.25738 | 37045 ft | 463 kts | 178° |
| 2026-04-20 17:15 | -32.33724 | 19.26934 | 37056 ft | 461 kts | 178° |
| 2026-04-20 17:16 | -32.40980 | 19.28594 | 37055 ft | 462 kts | 178° |
| 2026-04-20 17:16 | -32.47179 | 19.30015 | 37054 ft | 462 kts | 178° |
| 2026-04-20 17:17 | -32.53418 | 19.31445 | 36980 ft | 457 kts | 178° |
| 2026-04-20 17:17 | -32.56216 | 19.32083 | 36431 ft | 458 kts | 178° |
| 2026-04-20 17:17 | -32.59232 | 19.32516 | 35677 ft | 450 kts | 190° |
| 2026-04-20 17:17 | -32.62188 | 19.31914 | 34989 ft | 427 kts | 209° |
| 2026-04-20 17:18 | -32.64940 | 19.30733 | 34483 ft | 428 kts | 205° |
| 2026-04-20 17:18 | -32.67872 | 19.30133 | 34152 ft | 434 kts | 195° |
| 2026-04-20 17:18 | -32.70812 | 19.29766 | 33694 ft | 430 kts | 197° |
| 2026-04-20 17:18 | -32.73756 | 19.29281 | 33159 ft | 428 kts | 197° |
| 2026-04-20 17:19 | -32.76648 | 19.28828 | 32777 ft | 424 kts | 197° |
| 2026-04-20 17:19 | -32.79508 | 19.28388 | 32327 ft | 421 kts | 197° |
| 2026-04-20 17:19 | -32.82328 | 19.27945 | 31856 ft | 419 kts | 197° |
| 2026-04-20 17:19 | -32.85195 | 19.27500 | 31457 ft | 415 kts | 197° |
| 2026-04-20 17:20 | -32.88038 | 19.27056 | 31016 ft | 411 kts | 197° |
| 2026-04-20 17:20 | -32.90839 | 19.26619 | 30576 ft | 409 kts | 197° |
| 2026-04-20 17:20 | -32.93545 | 19.26195 | 30124 ft | 407 kts | 197° |
| 2026-04-20 17:20 | -32.96305 | 19.25756 | 29730 ft | 403 kts | 197° |
| 2026-04-20 17:21 | -32.99079 | 19.25323 | 29283 ft | 400 kts | 197° |
| 2026-04-20 17:21 | -33.01816 | 19.24911 | 28783 ft | 400 kts | 197° |
| 2026-04-20 17:21 | -33.04536 | 19.24525 | 28303 ft | 399 kts | 197° |
| 2026-04-20 17:21 | -33.07274 | 19.24144 | 27836 ft | 398 kts | 197° |
| 2026-04-20 17:22 | -33.10021 | 19.23774 | 27426 ft | 395 kts | 197° |
| 2026-04-20 17:22 | -33.12735 | 19.23420 | 26885 ft | 396 kts | 197° |
| 2026-04-20 17:22 | -33.15461 | 19.23068 | 26460 ft | 393 kts | 197° |
| 2026-04-20 17:22 | -33.18099 | 19.22727 | 26039 ft | 390 kts | 197° |
| 2026-04-20 17:23 | -33.20779 | 19.22373 | 25621 ft | 387 kts | 197° |
| 2026-04-20 17:23 | -33.23447 | 19.22014 | 24978 ft | 391 kts | 196° |
| 2026-04-20 17:23 | -33.26132 | 19.21633 | 24435 ft | 391 kts | 196° |
| 2026-04-20 17:23 | -33.28733 | 19.21253 | 24069 ft | 397 kts | 196° |
| 2026-04-20 17:24 | -33.31522 | 19.20821 | 23589 ft | 406 kts | 196° |
| 2026-04-20 17:24 | -33.34288 | 19.20381 | 23097 ft | 404 kts | 196° |
| 2026-04-20 17:24 | -33.36914 | 19.19958 | 22628 ft | 402 kts | 196° |
| 2026-04-20 17:24 | -33.39604 | 19.19517 | 22146 ft | 399 kts | 196° |
| 2026-04-20 17:25 | -33.42341 | 19.19058 | 21646 ft | 397 kts | 196° |
| 2026-04-20 17:25 | -33.45021 | 19.18599 | 21115 ft | 396 kts | 196° |
| 2026-04-20 17:25 | -33.47745 | 19.18123 | 20572 ft | 395 kts | 196° |
| 2026-04-20 17:25 | -33.50431 | 19.17640 | 19997 ft | 395 kts | 196° |
| 2026-04-20 17:26 | -33.53159 | 19.17135 | 19378 ft | 396 kts | 196° |
| 2026-04-20 17:26 | -33.55847 | 19.16623 | 18769 ft | 397 kts | 196° |
| 2026-04-20 17:26 | -33.58566 | 19.16089 | 18152 ft | 397 kts | 196° |
| 2026-04-20 17:26 | -33.61222 | 19.15554 | 17549 ft | 397 kts | 196° |
| 2026-04-20 17:27 | -33.63914 | 19.14998 | 16932 ft | 394 kts | 196° |
| 2026-04-20 17:27 | -33.66556 | 19.14444 | 16300 ft | 380 kts | 196° |
| 2026-04-20 17:27 | -33.69103 | 19.13905 | 15676 ft | 368 kts | 196° |
| 2026-04-20 17:27 | -33.71596 | 19.13373 | 15049 ft | 358 kts | 196° |
| 2026-04-20 17:28 | -33.73971 | 19.12859 | 14434 ft | 348 kts | 196° |
| 2026-04-20 17:28 | -33.76339 | 19.12339 | 13805 ft | 340 kts | 196° |
| 2026-04-20 17:28 | -33.78614 | 19.11828 | 13246 ft | 331 kts | 196° |
| 2026-04-20 17:28 | -33.80762 | 19.11338 | 12659 ft | 325 kts | 196° |
| 2026-04-20 17:29 | -33.82955 | 19.10827 | 12035 ft | 319 kts | 195° |
| 2026-04-20 17:29 | -33.85095 | 19.10316 | 11415 ft | 314 kts | 196° |
| 2026-04-20 17:29 | -33.87207 | 19.09805 | 10794 ft | 310 kts | 196° |
| 2026-04-20 17:29 | -33.89308 | 19.09293 | 10168 ft | 306 kts | 195° |
| 2026-04-20 17:30 | -33.91322 | 19.08662 | 9551 ft | 300 kts | 204° |
| 2026-04-20 17:30 | -33.93185 | 19.07809 | 9211 ft | 293 kts | 205° |
| 2026-04-20 17:30 | -33.95057 | 19.06951 | 8967 ft | 288 kts | 205° |
| 2026-04-20 17:30 | -33.96922 | 19.06106 | 8715 ft | 283 kts | 205° |
| 2026-04-20 17:31 | -33.98748 | 19.05276 | 8466 ft | 278 kts | 205° |
| 2026-04-20 17:31 | -34.00506 | 19.04477 | 8347 ft | 269 kts | 205° |
| 2026-04-20 17:31 | -34.02217 | 19.03702 | 8239 ft | 260 kts | 205° |
| 2026-04-20 17:31 | -34.03886 | 19.02948 | 8139 ft | 258 kts | 205° |
| 2026-04-20 17:32 | -34.05548 | 19.02196 | 8038 ft | 254 kts | 205° |
| 2026-04-20 17:32 | -34.07144 | 19.01474 | 7987 ft | 246 kts | 205° |
| 2026-04-20 17:32 | -34.08618 | 19.00418 | 7908 ft | 247 kts | 228° |
| 2026-04-20 17:32 | -34.09704 | 18.98874 | 7505 ft | 250 kts | 236° |
| 2026-04-20 17:33 | -34.10775 | 18.97222 | 7057 ft | 250 kts | 234° |
| 2026-04-20 17:33 | -34.11853 | 18.95618 | 6682 ft | 245 kts | 234° |
| 2026-04-20 17:33 | -34.12914 | 18.94034 | 6461 ft | 241 kts | 234° |
| 2026-04-20 17:33 | -34.13967 | 18.92460 | 6186 ft | 240 kts | 234° |
| 2026-04-20 17:34 | -34.15020 | 18.90887 | 5863 ft | 242 kts | 234° |
| 2026-04-20 17:34 | -34.16074 | 18.89308 | 5595 ft | 240 kts | 234° |
| 2026-04-20 17:34 | -34.17110 | 18.87758 | 5393 ft | 236 kts | 234° |
| 2026-04-20 17:34 | -34.18135 | 18.86226 | 5188 ft | 233 kts | 234° |
| 2026-04-20 17:35 | -34.19153 | 18.84704 | 5005 ft | 232 kts | 234° |
| 2026-04-20 17:35 | -34.20150 | 18.83214 | 4968 ft | 232 kts | 234° |
| 2026-04-20 17:35 | -34.21182 | 18.81668 | 4716 ft | 236 kts | 234° |
| 2026-04-20 17:35 | -34.22205 | 18.80135 | 4597 ft | 231 kts | 234° |
| 2026-04-20 17:36 | -34.23200 | 18.78644 | 4508 ft | 232 kts | 234° |
| 2026-04-20 17:36 | -34.24210 | 18.77132 | 4494 ft | 229 kts | 234° |
| 2026-04-20 17:36 | -34.25206 | 18.75643 | 4491 ft | 226 kts | 234° |
| 2026-04-20 17:36 | -34.26020 | 18.74050 | 4494 ft | 221 kts | 257° |
| 2026-04-20 17:37 | -34.25956 | 18.72269 | 4502 ft | 209 kts | 297° |
| 2026-04-20 17:37 | -34.25080 | 18.70932 | 4497 ft | 199 kts | 316° |
| 2026-04-20 17:37 | -34.24169 | 18.69918 | 4483 ft | 200 kts | 322° |
| 2026-04-20 17:37 | -34.22940 | 18.69134 | 4314 ft | 205 kts | 340° |
| 2026-04-20 17:38 | -34.21603 | 18.68645 | 4148 ft | 196 kts | 341° |
| 2026-04-20 17:38 | -34.20315 | 18.68158 | 3820 ft | 194 kts | 340° |
| 2026-04-20 17:38 | -34.19056 | 18.67587 | 3512 ft | 191 kts | 334° |
| 2026-04-20 17:38 | -34.17992 | 18.66994 | 3248 ft | 188 kts | 337° |
| 2026-04-20 17:39 | -34.16743 | 18.66565 | 3007 ft | 183 kts | 346° |
| 2026-04-20 17:39 | -34.15540 | 18.66252 | 2993 ft | 173 kts | 343° |
| 2026-04-20 17:39 | -34.14360 | 18.65855 | 2999 ft | 177 kts | 342° |
| 2026-04-20 17:39 | -34.13232 | 18.65488 | 2974 ft | 163 kts | 343° |
| 2026-04-20 17:40 | -34.12143 | 18.65143 | 2878 ft | 161 kts | 343° |
| 2026-04-20 17:40 | -34.11064 | 18.64798 | 2685 ft | 161 kts | 343° |
| 2026-04-20 17:40 | -34.09996 | 18.64458 | 2463 ft | 155 kts | 343° |
| 2026-04-20 17:40 | -34.08991 | 18.64139 | 2250 ft | 143 kts | 343° |
| 2026-04-20 17:41 | -34.08066 | 18.63845 | 2071 ft | 136 kts | 343° |
| 2026-04-20 17:41 | -34.07139 | 18.63550 | 1886 ft | 138 kts | 343° |
| 2026-04-20 17:41 | -34.06208 | 18.63254 | 1696 ft | 138 kts | 343° |
| 2026-04-20 17:41 | -34.05295 | 18.62964 | 1507 ft | 133 kts | 343° |
| 2026-04-20 17:42 | -34.04445 | 18.62694 | 1338 ft | 124 kts | 343° |
| 2026-04-20 17:42 | -34.03603 | 18.62426 | 1169 ft | 127 kts | 343° |
| 2026-04-20 17:42 | -34.02758 | 18.62157 | 999 ft | 126 kts | 343° |
| 2026-04-20 17:42 | -34.01913 | 18.61888 | 828 ft | 124 kts | 343° |
| 2026-04-20 17:43 | -34.01079 | 18.61623 | 663 ft | 124 kts | 344° |
| 2026-04-20 17:43 | -34.00247 | 18.61360 | 498 ft | 127 kts | 344° |
| 2026-04-20 17:43 | -33.99391 | 18.61104 | 334 ft | 126 kts | 343° |
| 2026-04-20 17:43 | -33.98546 | 18.60826 | 172 ft | 123 kts | 344° |
| 2026-04-20 17:44 | -33.97805 | 18.60588 | 153 ft | 92 kts | 346° |
| 2026-04-20 17:44 | -33.97240 | 18.60412 | 158 ft | 76 kts | 346° |
| 2026-04-20 17:44 | -33.96763 | 18.60261 | 157 ft | 66 kts | 344° |
| 2026-04-20 17:44 | -33.96388 | 18.60053 | 157 ft | 53 kts | 316° |
| 2026-04-20 17:45 | -33.96234 | 18.59871 | 156 ft | 48 kts | 314° |